Time;durP1;ratioP1;P1;durP2;ratioP2;P2;SDS_P1;SDS_P2;PMS_P1;PMS_P2;Temp;Humidity;BMP_temperature;BMP_pressure;BME280_temperature;BME280_humidity;BME280_pressure;Samples;Min_cycle;Max_cycle;Signal;HPM_P1;HPM_P2
2023/05/28 00:02:26;;;;;;;1.02;0.80;;;;;;;;;;5052171;28;20106;-67
2023/05/28 00:04:53;;;;;;;1.45;0.95;;;;;;;;;;5048068;28;20037;-67
2023/05/28 00:07:21;;;;;;;1.63;1.10;;;;;;;;;;5046602;28;20025;-68
2023/05/28 00:09:48;;;;;;;4.18;0.75;;;;;;;;;;5046728;28;20057;-67
2023/05/28 00:12:15;;;;;;;2.38;1.35;;;;;;;;;;5046740;28;20036;-67
2023/05/28 00:14:42;;;;;;;0.85;0.65;;;;;;;;;;5047684;28;20021;-67
2023/05/28 00:17:09;;;;;;;1.55;0.90;;;;;;;;;;5051900;28;20032;-68
2023/05/28 00:19:36;;;;;;;0.93;0.68;;;;;;;;;;5051945;28;20669;-67
2023/05/28 00:22:02;;;;;;;2.30;1.35;;;;;;;;;;5053030;28;20379;-67
2023/05/28 00:24:29;;;;;;;1.92;1.17;;;;;;;;;;5056106;28;20039;-67
2023/05/28 00:26:56;;;;;;;3.08;1.10;;;;;;;;;;5055103;28;20041;-67
2023/05/28 00:29:26;;;;;;;1.27;0.90;;;;;;;;;;5050508;28;20060;-67
2023/05/28 00:31:55;;;;;;;0.93;0.75;;;;;;;;;;5050385;28;20021;-67
2023/05/28 00:34:23;;;;;;;3.50;1.02;;;;;;;;;;5050388;28;20071;-68
2023/05/28 00:36:50;;;;;;;1.52;0.98;;;;;;;;;;5050387;28;20067;-67
2023/05/28 00:39:17;;;;;;;1.85;0.98;;;;;;;;;;5055303;28;20471;-67
2023/05/28 00:41:44;;;;;;;0.98;0.60;;;;;;;;;;5055972;28;20438;-68
2023/05/28 00:44:11;;;;;;;2.42;1.02;;;;;;;;;;5055617;28;20079;-67
2023/05/28 00:46:38;;;;;;;0.95;0.55;;;;;;;;;;5055737;28;20036;-67
2023/05/28 00:49:05;;;;;;;1.83;1.17;;;;;;;;;;5055428;28;20025;-67
2023/05/28 00:51:32;;;;;;;7.97;0.95;;;;;;;;;;5049993;28;20066;-67
2023/05/28 00:53:59;;;;;;;1.15;0.85;;;;;;;;;;5050312;28;20419;-67
2023/05/28 00:56:26;;;;;;;1.13;0.60;;;;;;;;;;5049772;28;20025;-67
2023/05/28 00:58:55;;;;;;;1.05;0.65;;;;;;;;;;5050041;28;20032;-67
2023/05/28 01:01:24;;;;;;;1.10;0.95;;;;;;;;;;5054848;28;20033;-67
2023/05/28 01:03:51;;;;;;;0.70;0.57;;;;;;;;;;5055338;28;20108;-67
2023/05/28 01:06:20;;;;;;;0.65;0.52;;;;;;;;;;5055289;28;20486;-67
2023/05/28 01:08:48;;;;;;;1.85;1.25;;;;;;;;;;5055202;28;20514;-67
2023/05/28 01:11:16;;;;;;;1.75;1.05;;;;;;;;;;5055353;28;20112;-67
2023/05/28 01:13:43;;;;;;;2.00;1.08;;;;;;;;;;5049775;28;20025;-67
2023/05/28 01:16:10;;;;;;;1.55;0.90;;;;;;;;;;5049878;28;20028;-67
2023/05/28 01:18:41;;;;;;;1.65;0.88;;;;;;;;;;5049904;28;20028;-67
2023/05/28 01:21:10;;;;;;;1.23;0.95;;;;;;;;;;5049672;28;20029;-67
2023/05/28 01:23:46;;;;;;;1.48;0.98;;;;;;;;;;5054032;28;20132;-67
2023/05/28 01:26:13;;;;;;;3.35;1.65;;;;;;;;;;5055012;28;20059;-67
2023/05/28 01:28:44;;;;;;;1.58;1.10;;;;;;;;;;5054846;28;20035;-67
2023/05/28 01:31:14;;;;;;;5.17;1.77;;;;;;;;;;5054889;28;20163;-67
2023/05/28 01:33:44;;;;;;;3.43;1.27;;;;;;;;;;5053813;28;20422;-67
2023/05/28 01:36:22;;;;;;;5.50;1.90;;;;;;;;;;5049559;28;20043;-67
2023/05/28 01:38:52;;;;;;;1.10;0.87;;;;;;;;;;5049414;28;20029;-67
2023/05/28 01:41:20;;;;;;;6.17;1.63;;;;;;;;;;5049495;28;20120;-67
2023/05/28 01:43:46;;;;;;;1.63;1.20;;;;;;;;;;5049074;28;20119;-67
2023/05/28 01:46:13;;;;;;;7.10;1.53;;;;;;;;;;5054003;28;20483;-67
2023/05/28 01:48:40;;;;;;;2.37;1.63;;;;;;;;;;5054518;28;20025;-67
2023/05/28 01:51:07;;;;;;;2.93;1.60;;;;;;;;;;5054529;28;20079;-67
2023/05/28 01:53:34;;;;;;;3.83;2.57;;;;;;;;;;5054553;28;20021;-67
2023/05/28 01:56:02;;;;;;;4.27;2.20;;;;;;;;;;5054569;28;20083;-67
2023/05/28 01:58:30;;;;;;;2.87;2.10;;;;;;;;;;5049278;28;20029;-67
2023/05/28 02:01:15;;;;;;;5.43;2.47;;;;;;;;;;5048934;28;20083;-67
2023/05/28 02:03:42;;;;;;;2.53;1.87;;;;;;;;;;5048883;28;20479;-67
2023/05/28 02:06:09;;;;;;;8.53;2.30;;;;;;;;;;5048748;28;20348;-67
2023/05/28 02:08:36;;;;;;;4.17;2.33;;;;;;;;;;5053485;28;20026;-67
2023/05/28 02:11:03;;;;;;;6.03;3.03;;;;;;;;;;5053800;28;20039;-66
2023/05/28 02:13:30;;;;;;;8.27;3.20;;;;;;;;;;5054151;28;20100;-67
2023/05/28 02:15:57;;;;;;;7.60;3.60;;;;;;;;;;5054089;28;20021;-67
2023/05/28 02:18:23;;;;;;;8.63;2.77;;;;;;;;;;5054139;28;20032;-67
2023/05/28 02:20:50;;;;;;;3.93;2.03;;;;;;;;;;5049347;28;20037;-67
2023/05/28 02:23:17;;;;;;;4.10;2.23;;;;;;;;;;5048612;28;20047;-67
2023/05/28 02:25:44;;;;;;;3.50;2.53;;;;;;;;;;5048419;28;20529;-67
2023/05/28 02:28:11;;;;;;;5.93;3.37;;;;;;;;;;5048266;28;20125;-67
2023/05/28 02:30:38;;;;;;;11.90;4.20;;;;;;;;;;5051945;28;20028;-67
2023/05/28 02:33:05;;;;;;;7.47;4.93;;;;;;;;;;5053863;28;20414;-66
2023/05/28 02:35:32;;;;;;;9.67;4.00;;;;;;;;;;5053830;28;20029;-66
2023/05/28 02:37:58;;;;;;;10.03;3.80;;;;;;;;;;5053736;28;20047;-66
2023/05/28 02:40:25;;;;;;;11.37;3.83;;;;;;;;;;5053579;28;20036;-67
2023/05/28 02:42:52;;;;;;;4.00;2.63;;;;;;;;;;5049880;28;20029;-67
2023/05/28 02:45:19;;;;;;;4.07;2.93;;;;;;;;;;5048038;28;20041;-66
2023/05/28 02:47:46;;;;;;;7.40;3.10;;;;;;;;;;5047749;28;20021;-66
2023/05/28 02:50:12;;;;;;;5.67;2.87;;;;;;;;;;5048291;28;20025;-66
2023/05/28 02:52:39;;;;;;;4.87;2.77;;;;;;;;;;5050616;28;20087;-67
2023/05/28 02:55:07;;;;;;;3.57;2.47;;;;;;;;;;5053569;28;20032;-67
2023/05/28 02:57:35;;;;;;;5.77;3.10;;;;;;;;;;5052932;28;20487;-67
2023/05/28 03:00:02;;;;;;;12.77;3.23;;;;;;;;;;5053107;28;20079;-67
2023/05/28 03:02:29;;;;;;;2.90;2.20;;;;;;;;;;5053285;28;20098;-67
2023/05/28 03:04:56;;;;;;;2.53;1.80;;;;;;;;;;5050111;28;20028;-67
2023/05/28 03:07:23;;;;;;;10.67;2.80;;;;;;;;;;5046496;28;20029;-66
2023/05/28 03:09:50;;;;;;;3.13;1.87;;;;;;;;;;5047567;28;20028;-66
2023/05/28 03:12:17;;;;;;;2.83;1.77;;;;;;;;;;5047741;28;20026;-67
2023/05/28 03:14:43;;;;;;;1.80;1.17;;;;;;;;;;5049213;28;20384;-67
2023/05/28 03:17:10;;;;;;;2.40;1.57;;;;;;;;;;5052939;28;20495;-66
2023/05/28 03:19:37;;;;;;;2.17;1.40;;;;;;;;;;5052924;28;20382;-66
2023/05/28 03:22:04;;;;;;;1.80;1.00;;;;;;;;;;5051445;28;20391;-67
2023/05/28 03:24:31;;;;;;;2.47;1.50;;;;;;;;;;5052255;28;20036;-66
2023/05/28 03:27:01;;;;;;;1.67;1.10;;;;;;;;;;5050828;28;20122;-67
2023/05/28 03:29:28;;;;;;;4.90;1.80;;;;;;;;;;5047612;28;20024;-66
2023/05/28 03:31:54;;;;;;;3.93;1.70;;;;;;;;;;5047294;28;20021;-66
2023/05/28 03:34:21;;;;;;;2.43;1.60;;;;;;;;;;5047562;28;20021;-66
2023/05/28 03:36:48;;;;;;;13.53;1.93;;;;;;;;;;5048246;28;20044;-66
2023/05/28 03:39:15;;;;;;;2.03;1.40;;;;;;;;;;5052570;28;20021;-67
2023/05/28 03:41:44;;;;;;;2.50;1.10;;;;;;;;;;5052413;28;20025;-67
2023/05/28 03:44:10;;;;;;;1.67;1.10;;;;;;;;;;5052460;28;20037;-67
2023/05/28 03:46:37;;;;;;;1.90;1.37;;;;;;;;;;5052573;28;20595;-67
2023/05/28 03:49:04;;;;;;;1.60;1.17;;;;;;;;;;5051169;28;20387;-67
2023/05/28 03:51:31;;;;;;;2.97;1.80;;;;;;;;;;5047092;28;20017;-66
2023/05/28 03:53:58;;;;;;;15.60;1.97;;;;;;;;;;5046981;28;20029;-66
2023/05/28 03:56:25;;;;;;;1.53;1.00;;;;;;;;;;5046448;28;20487;-67
2023/05/28 03:58:52;;;;;;;2.70;1.40;;;;;;;;;;5047277;28;20055;-67
2023/05/28 04:01:19;;;;;;;2.03;1.63;;;;;;;;;;5052489;28;20028;-66
2023/05/28 04:03:46;;;;;;;4.00;1.73;;;;;;;;;;5052281;28;20029;-67
2023/05/28 04:06:13;;;;;;;5.60;2.07;;;;;;;;;;5052169;28;20022;-66
2023/05/28 04:08:40;;;;;;;5.83;2.30;;;;;;;;;;5052191;28;20021;-66
2023/05/28 04:11:06;;;;;;;2.50;1.53;;;;;;;;;;5051945;28;20036;-66
2023/05/28 04:13:33;;;;;;;3.50;2.00;;;;;;;;;;5046918;28;20033;-66
2023/05/28 04:16:01;;;;;;;2.13;1.60;;;;;;;;;;5046797;28;20025;-66
2023/05/28 04:18:27;;;;;;;1.87;1.40;;;;;;;;;;5046756;28;20371;-67
2023/05/28 04:20:55;;;;;;;3.87;1.23;;;;;;;;;;5046752;28;20036;-66
2023/05/28 04:23:22;;;;;;;1.67;1.07;;;;;;;;;;5051634;28;20455;-66
2023/05/28 04:25:50;;;;;;;1.87;1.27;;;;;;;;;;5052137;28;20100;-66
2023/05/28 04:28:17;;;;;;;2.93;1.60;;;;;;;;;;5052042;28;20436;-66
2023/05/28 04:30:43;;;;;;;2.33;1.50;;;;;;;;;;5051993;28;20017;-66
2023/05/28 04:33:10;;;;;;;2.83;1.77;;;;;;;;;;5051517;28;20033;-66
2023/05/28 04:35:37;;;;;;;2.57;1.70;;;;;;;;;;5047035;28;20120;-67
2023/05/28 04:38:04;;;;;;;3.27;1.60;;;;;;;;;;5046781;28;20032;-66
2023/05/28 04:40:32;;;;;;;2.90;1.53;;;;;;;;;;5046376;28;20502;-66
2023/05/28 04:42:59;;;;;;;4.20;1.63;;;;;;;;;;5046593;28;20036;-66
2023/05/28 04:45:26;;;;;;;11.67;1.13;;;;;;;;;;5050385;28;20068;-66
2023/05/28 04:47:53;;;;;;;1.80;1.30;;;;;;;;;;5050383;28;20021;-66
2023/05/28 04:50:21;;;;;;;1.90;1.23;;;;;;;;;;5051349;28;20048;-66
2023/05/28 04:52:48;;;;;;;1.17;0.80;;;;;;;;;;5051807;28;20083;-66
2023/05/28 04:55:16;;;;;;;2.00;1.17;;;;;;;;;;5051844;28;20025;-66
2023/05/28 04:57:43;;;;;;;2.23;1.33;;;;;;;;;;5047333;28;20025;-66
2023/05/28 05:00:12;;;;;;;1.97;1.40;;;;;;;;;;5045162;28;20087;-66
2023/05/28 05:02:41;;;;;;;1.47;1.00;;;;;;;;;;5046502;28;20090;-66
2023/05/28 05:05:08;;;;;;;2.67;1.43;;;;;;;;;;5046096;28;20501;-66
2023/05/28 05:07:38;;;;;;;2.17;1.20;;;;;;;;;;5049823;28;20546;-66
2023/05/28 05:10:11;;;;;;;7.77;1.87;;;;;;;;;;5054820;28;21241;-66
2023/05/28 05:12:38;;;;;;;1.80;1.33;;;;;;;;;;5055379;28;20487;-66
2023/05/28 05:15:08;;;;;;;1.90;1.37;;;;;;;;;;5055225;28;20439;-66
2023/05/28 05:17:34;;;;;;;3.60;1.90;;;;;;;;;;5055299;28;20443;-66
2023/05/28 05:20:03;;;;;;;4.17;2.27;;;;;;;;;;5050868;28;20052;-66
2023/05/28 05:22:30;;;;;;;4.67;2.23;;;;;;;;;;5049823;28;20053;-65
2023/05/28 05:24:57;;;;;;;4.27;1.70;;;;;;;;;;5049589;28;20037;-66
2023/05/28 05:27:24;;;;;;;3.90;1.40;;;;;;;;;;5049776;28;20028;-66
2023/05/28 05:29:51;;;;;;;3.90;1.70;;;;;;;;;;5052714;28;20352;-66
2023/05/28 05:32:18;;;;;;;7.00;1.40;;;;;;;;;;5054873;28;20103;-66
2023/05/28 05:34:44;;;;;;;4.73;2.13;;;;;;;;;;5059915;28;20498;-65
2023/05/28 05:37:11;;;;;;;3.27;1.50;;;;;;;;;;5073891;28;20021;-65
2023/05/28 05:39:38;;;;;;;2.17;1.20;;;;;;;;;;5074923;28;20021;-65
2023/05/28 05:42:05;;;;;;;7.67;1.47;;;;;;;;;;5064741;28;20033;-65
2023/05/28 05:44:32;;;;;;;1.97;0.90;;;;;;;;;;5065513;28;20052;-65
2023/05/28 05:46:59;;;;;;;2.57;0.47;;;;;;;;;;5051672;28;20021;-65
2023/05/28 05:49:26;;;;;;;1.87;1.00;;;;;;;;;;5053542;28;20366;-65
2023/05/28 05:51:53;;;;;;;0.57;0.53;;;;;;;;;;5071872;28;20021;-65
2023/05/28 05:54:19;;;;;;;2.70;1.10;;;;;;;;;;5074530;28;20034;-65
2023/05/28 05:56:46;;;;;;;1.57;0.87;;;;;;;;;;5074272;28;20024;-65
2023/05/28 05:59:13;;;;;;;1.60;1.30;;;;;;;;;;5074482;28;20032;-65
2023/05/28 06:01:40;;;;;;;1.90;1.17;;;;;;;;;;5069582;28;20100;-65
2023/05/28 06:04:06;;;;;;;0.97;0.77;;;;;;;;;;5051550;28;20029;-65
2023/05/28 06:06:36;;;;;;;3.53;1.20;;;;;;;;;;5049014;28;20044;-65
2023/05/28 06:09:03;;;;;;;2.50;1.10;;;;;;;;;;5048883;28;20061;-65
2023/05/28 06:11:30;;;;;;;1.60;0.87;;;;;;;;;;5049108;28;20029;-65
2023/05/28 06:13:56;;;;;;;0.80;0.60;;;;;;;;;;5050941;28;20017;-65
2023/05/28 06:16:24;;;;;;;1.63;1.03;;;;;;;;;;5054315;28;20024;-65
2023/05/28 06:18:51;;;;;;;1.47;0.90;;;;;;;;;;5054156;28;20403;-65
2023/05/28 06:21:18;;;;;;;2.67;1.23;;;;;;;;;;5053842;28;20104;-65
2023/05/28 06:23:45;;;;;;;0.90;0.57;;;;;;;;;;5053872;28;20037;-65
2023/05/28 06:26:12;;;;;;;1.67;1.10;;;;;;;;;;5051718;28;20083;-65
2023/05/28 06:28:39;;;;;;;1.90;1.17;;;;;;;;;;5048693;28;20075;-65
2023/05/28 06:31:06;;;;;;;1.43;0.77;;;;;;;;;;5048777;28;20416;-65
2023/05/28 06:33:33;;;;;;;3.17;1.50;;;;;;;;;;5048863;28;20061;-64
2023/05/28 06:36:00;;;;;;;2.17;1.67;;;;;;;;;;5049942;28;20379;-65
2023/05/28 06:38:27;;;;;;;8.20;1.43;;;;;;;;;;5053787;28;20490;-65
2023/05/28 06:40:54;;;;;;;1.90;1.07;;;;;;;;;;5053724;28;20132;-65
2023/05/28 06:43:20;;;;;;;1.53;0.97;;;;;;;;;;5053402;28;20494;-65
2023/05/28 06:45:47;;;;;;;3.63;1.40;;;;;;;;;;5053208;28;20052;-64
2023/05/28 06:48:14;;;;;;;1.83;1.23;;;;;;;;;;5052102;28;20025;-65
2023/05/28 06:50:41;;;;;;;1.97;1.33;;;;;;;;;;5048333;28;20711;-64
2023/05/28 06:53:08;;;;;;;1.00;0.70;;;;;;;;;;5048431;28;20356;-65
2023/05/28 06:55:34;;;;;;;1.17;0.83;;;;;;;;;;5048349;28;20045;-65
2023/05/28 06:58:01;;;;;;;3.00;0.83;;;;;;;;;;5048445;28;20135;-65
2023/05/28 07:00:28;;;;;;;1.77;1.10;;;;;;;;;;5053299;28;20029;-64
2023/05/28 07:02:55;;;;;;;2.87;1.07;;;;;;;;;;5053212;28;20463;-65
2023/05/28 07:05:21;;;;;;;1.77;1.00;;;;;;;;;;5053062;28;20021;-65
2023/05/28 07:07:48;;;;;;;2.70;1.53;;;;;;;;;;5053311;28;20021;-64
2023/05/28 07:10:15;;;;;;;1.47;0.87;;;;;;;;;;5052448;28;20483;-65
2023/05/28 07:12:42;;;;;;;1.40;1.10;;;;;;;;;;5048061;28;20024;-65
2023/05/28 07:15:10;;;;;;;5.63;1.97;;;;;;;;;;5048002;28;20028;-65
2023/05/28 07:17:36;;;;;;;1.57;1.13;;;;;;;;;;5047757;28;20029;-65
2023/05/28 07:20:05;;;;;;;2.00;1.10;;;;;;;;;;5047936;28;20083;-65
2023/05/28 07:22:32;;;;;;;2.67;1.30;;;;;;;;;;5052739;28;20032;-65
2023/05/28 07:24:59;;;;;;;1.30;0.97;;;;;;;;;;5052734;28;20036;-65
2023/05/28 07:27:26;;;;;;;2.20;1.00;;;;;;;;;;5052828;28;20430;-64
2023/05/28 07:29:53;;;;;;;1.73;1.27;;;;;;;;;;5052847;28;20033;-65
2023/05/28 07:32:20;;;;;;;0.87;0.57;;;;;;;;;;5051928;28;20560;-65
2023/05/28 07:34:47;;;;;;;1.90;1.30;;;;;;;;;;5047546;28;20029;-64
2023/05/28 07:37:13;;;;;;;1.37;1.00;;;;;;;;;;5047563;28;20021;-64
2023/05/28 07:39:40;;;;;;;2.93;1.33;;;;;;;;;;5047259;28;20029;-65
2023/05/28 07:42:07;;;;;;;1.67;1.13;;;;;;;;;;5047612;28;20033;-65
2023/05/28 07:44:34;;;;;;;1.33;0.90;;;;;;;;;;5051966;28;20371;-65
2023/05/28 07:47:00;;;;;;;1.37;0.90;;;;;;;;;;5052580;28;20025;-65
2023/05/28 07:49:27;;;;;;;1.43;1.03;;;;;;;;;;5052506;28;20490;-65
2023/05/28 07:51:54;;;;;;;1.10;0.73;;;;;;;;;;5052616;28;20524;-65
2023/05/28 07:54:21;;;;;;;2.13;1.00;;;;;;;;;;5052590;28;20044;-64
2023/05/28 07:56:48;;;;;;;1.77;0.97;;;;;;;;;;5047365;28;20109;-65
2023/05/28 07:59:15;;;;;;;2.20;1.13;;;;;;;;;;5047349;28;20379;-64
2023/05/28 08:01:42;;;;;;;13.37;1.07;;;;;;;;;;5047224;28;20078;-65
2023/05/28 08:04:08;;;;;;;1.93;1.20;;;;;;;;;;5047085;28;20361;-65
2023/05/28 08:06:35;;;;;;;1.17;0.80;;;;;;;;;;5050909;28;20021;-64
2023/05/28 08:09:02;;;;;;;2.83;1.57;;;;;;;;;;5052252;28;20104;-64
2023/05/28 08:11:29;;;;;;;2.60;0.90;;;;;;;;;;5052090;28;20356;-66
2023/05/28 08:13:56;;;;;;;1.50;1.17;;;;;;;;;;5071459;28;20352;-64
2023/05/28 08:16:23;;;;;;;1.50;1.03;;;;;;;;;;5072307;28;20085;-64
2023/05/28 08:18:49;;;;;;;0.50;0.40;;;;;;;;;;5068076;28;20032;-65
2023/05/28 08:21:16;;;;;;;1.93;1.40;;;;;;;;;;5066949;28;20020;-65
2023/05/28 08:23:43;;;;;;;2.43;1.43;;;;;;;;;;5066724;28;20039;-64
2023/05/28 08:26:10;;;;;;;4.07;1.00;;;;;;;;;;5066842;28;20029;-64
2023/05/28 08:28:37;;;;;;;2.60;1.07;;;;;;;;;;5070309;28;20023;-65
2023/05/28 08:31:04;;;;;;;4.63;1.23;;;;;;;;;;5071743;28;20458;-64
2023/05/28 08:33:30;;;;;;;2.37;1.30;;;;;;;;;;5072133;28;20027;-64
2023/05/28 08:35:57;;;;;;;1.43;1.30;;;;;;;;;;5072061;28;20020;-64
2023/05/28 08:38:24;;;;;;;1.70;1.10;;;;;;;;;;5072184;28;20032;-64
2023/05/28 08:40:54;;;;;;;2.47;1.40;;;;;;;;;;5068507;28;20056;-65
2023/05/28 08:43:21;;;;;;;1.53;1.20;;;;;;;;;;5068618;28;20517;-65
2023/05/28 08:45:52;;;;;;;2.00;1.40;;;;;;;;;;5070445;28;20210;-64
2023/05/28 08:48:18;;;;;;;2.07;1.50;;;;;;;;;;5070548;28;20021;-64
2023/05/28 08:50:50;;;;;;;1.43;1.10;;;;;;;;;;5073371;28;20020;-66
2023/05/28 08:53:17;;;;;;;1.77;0.93;;;;;;;;;;5075762;28;20021;-65
2023/05/28 08:55:45;;;;;;;1.50;1.07;;;;;;;;;;5075759;28;20051;-64
2023/05/28 08:58:12;;;;;;;2.73;1.40;;;;;;;;;;5075535;28;20028;-64
2023/05/28 09:00:40;;;;;;;2.07;1.60;;;;;;;;;;5075344;28;20487;-65
2023/05/28 09:03:07;;;;;;;1.23;0.70;;;;;;;;;;5072488;28;20020;-64
2023/05/28 09:05:38;;;;;;;2.90;1.03;;;;;;;;;;5070397;28;20098;-65
2023/05/28 09:08:08;;;;;;;9.40;1.27;;;;;;;;;;5070115;28;20506;-64
2023/05/28 09:10:38;;;;;;;2.10;1.10;;;;;;;;;;5070347;28;20032;-64
2023/05/28 09:13:05;;;;;;;1.83;1.33;;;;;;;;;;5073110;28;20052;-65
2023/05/28 09:15:34;;;;;;;2.40;1.50;;;;;;;;;;5074832;28;20028;-64
2023/05/28 09:18:01;;;;;;;2.67;1.70;;;;;;;;;;5075379;28;20021;-64
2023/05/28 09:20:28;;;;;;;6.77;1.13;;;;;;;;;;5075373;28;20021;-65
2023/05/28 09:22:59;;;;;;;1.30;0.90;;;;;;;;;;5075251;28;20494;-64
2023/05/28 09:25:26;;;;;;;1.67;1.37;;;;;;;;;;5072152;28;20040;-64
2023/05/28 09:27:54;;;;;;;3.60;1.90;;;;;;;;;;5070102;28;20435;-64
2023/05/28 09:30:22;;;;;;;2.10;1.47;;;;;;;;;;5069380;28;20028;-65
2023/05/28 09:33:09;;;;;;;7.23;1.83;;;;;;;;;;5069769;28;20085;-64
2023/05/28 09:35:36;;;;;;;1.43;0.90;;;;;;;;;;5072870;28;20016;-64
2023/05/28 09:38:09;;;;;;;3.20;1.17;;;;;;;;;;5074960;28;20020;-64
2023/05/28 09:40:39;;;;;;;2.37;1.73;;;;;;;;;;5074784;28;20020;-65
2023/05/28 09:43:07;;;;;;;2.37;1.17;;;;;;;;;;5074752;28;20107;-64
2023/05/28 09:45:34;;;;;;;1.70;1.00;;;;;;;;;;5056679;28;20043;-64
2023/05/28 09:48:01;;;;;;;1.60;1.20;;;;;;;;;;5071123;28;20383;-65
2023/05/28 09:50:28;;;;;;;1.13;1.00;;;;;;;;;;5069375;28;20040;-65
2023/05/28 09:52:56;;;;;;;2.00;1.40;;;;;;;;;;5051360;28;20037;-65
2023/05/28 09:55:24;;;;;;;1.77;1.40;;;;;;;;;;5068772;28;20024;-64
2023/05/28 09:57:57;;;;;;;2.27;1.57;;;;;;;;;;5071977;28;20141;-65
2023/05/28 10:00:27;;;;;;;3.77;1.63;;;;;;;;;;5074592;28;20024;-64
2023/05/28 10:03:11;;;;;;;2.57;1.30;;;;;;;;;;5074620;28;20029;-65
2023/05/28 10:05:39;;;;;;;4.83;1.67;;;;;;;;;;5074486;28;20039;-64
2023/05/28 10:08:06;;;;;;;1.50;1.00;;;;;;;;;;5074005;28;20104;-64
2023/05/28 10:10:33;;;;;;;3.53;1.67;;;;;;;;;;5070283;28;20032;-65
2023/05/28 10:13:01;;;;;;;5.13;1.83;;;;;;;;;;5068878;28;20478;-64
2023/05/28 10:15:28;;;;;;;1.10;1.00;;;;;;;;;;5069330;28;20108;-64
2023/05/28 10:17:55;;;;;;;1.77;1.30;;;;;;;;;;5069103;28;20052;-65
2023/05/28 10:20:22;;;;;;;1.13;0.93;;;;;;;;;;5072237;28;20073;-64
2023/05/28 10:22:49;;;;;;;1.20;0.87;;;;;;;;;;5073387;28;20440;-65
2023/05/28 10:25:16;;;;;;;1.37;0.90;;;;;;;;;;5074083;28;20498;-64
2023/05/28 10:27:48;;;;;;;3.00;1.53;;;;;;;;;;5074146;28;20182;-65
2023/05/28 10:30:35;;;;;;;13.97;2.10;;;;;;;;;;5074026;28;20048;-64
2023/05/28 10:33:17;;;;;;;3.13;1.70;;;;;;;;;;5069184;28;20583;-64
2023/05/28 10:35:52;;;;;;;2.83;1.30;;;;;;;;;;5068677;28;20115;-64
2023/05/28 10:38:18;;;;;;;1.20;0.93;;;;;;;;;;5068751;28;20021;-65
2023/05/28 10:40:45;;;;;;;2.23;1.50;;;;;;;;;;5068398;28;20024;-64
2023/05/28 10:43:30;;;;;;;1.40;1.20;;;;;;;;;;5072814;28;20036;-64
2023/05/28 10:45:57;;;;;;;7.10;1.63;;;;;;;;;;5073577;28;20032;-64
2023/05/28 10:48:24;;;;;;;2.43;1.43;;;;;;;;;;5073773;28;20031;-64
2023/05/28 10:51:00;;;;;;;2.20;1.63;;;;;;;;;;5073459;28;20028;-64
2023/05/28 10:53:27;;;;;;;3.67;1.70;;;;;;;;;;5073334;28;20348;-64
2023/05/28 10:55:54;;;;;;;2.23;1.50;;;;;;;;;;5068092;28;20032;-64
2023/05/28 10:58:25;;;;;;;1.37;1.10;;;;;;;;;;5068083;28;20093;-64
2023/05/28 11:00:52;;;;;;;1.53;1.10;;;;;;;;;;5068142;28;20028;-64
2023/05/28 11:03:39;;;;;;;2.63;1.60;;;;;;;;;;5067982;28;20334;-64
2023/05/28 11:06:07;;;;;;;1.93;1.37;;;;;;;;;;5072231;28;20020;-64
2023/05/28 11:08:38;;;;;;;5.60;1.10;;;;;;;;;;5072993;28;20482;-64
2023/05/28 11:11:05;;;;;;;5.47;2.10;;;;;;;;;;5073171;28;20316;-64
2023/05/28 11:13:33;;;;;;;1.33;1.10;;;;;;;;;;5073147;28;20044;-64
2023/05/28 11:16:09;;;;;;;2.70;1.13;;;;;;;;;;5072085;28;20023;-64
2023/05/28 11:18:36;;;;;;;1.77;1.30;;;;;;;;;;5067679;28;20268;-64
2023/05/28 11:21:04;;;;;;;0.63;0.63;;;;;;;;;;5067501;28;20257;-64
2023/05/28 11:23:31;;;;;;;1.67;1.10;;;;;;;;;;5067747;28;20276;-64
2023/05/28 11:25:58;;;;;;;1.47;1.13;;;;;;;;;;5067913;28;20291;-65
2023/05/28 11:28:24;;;;;;;0.67;0.57;;;;;;;;;;5072946;28;20399;-64
2023/05/28 11:30:52;;;;;;;2.90;1.87;;;;;;;;;;5072857;28;20256;-64
2023/05/28 11:33:19;;;;;;;11.47;2.10;;;;;;;;;;5072533;28;20024;-64
2023/05/28 11:35:46;;;;;;;2.00;1.27;;;;;;;;;;5072676;28;20611;-64
2023/05/28 11:38:12;;;;;;;0.90;0.70;;;;;;;;;;5072003;28;20416;-64
2023/05/28 11:40:39;;;;;;;3.00;1.20;;;;;;;;;;5049457;28;20029;-64
2023/05/28 11:43:06;;;;;;;1.87;1.10;;;;;;;;;;5067302;28;20028;-64
2023/05/28 11:45:41;;;;;;;2.13;1.23;;;;;;;;;;5067447;28;20716;-64
2023/05/28 11:48:13;;;;;;;1.45;1.00;;;;;;;;;;5067400;28;20344;-64
2023/05/28 11:50:40;;;;;;;1.87;1.33;;;;;;;;;;5072016;28;20017;-64
2023/05/28 11:53:07;;;;;;;1.30;1.00;;;;;;;;;;5072794;28;20257;-64
2023/05/28 11:55:34;;;;;;;1.40;0.87;;;;;;;;;;5072563;28;20614;-64
2023/05/28 11:58:01;;;;;;;1.57;1.13;;;;;;;;;;5072342;28;20257;-65
2023/05/28 12:00:36;;;;;;;0.90;0.77;;;;;;;;;;5072109;28;20261;-64
2023/05/28 12:03:02;;;;;;;;;;;;;;;;;;5067623;28;20331;-64
2023/05/28 12:05:37;;;;;;;0.87;0.77;;;;;;;;;;5066798;28;20018;-65
2023/05/28 12:08:04;;;;;;;1.08;0.82;;;;;;;;;;5067469;28;20354;-66
2023/05/28 12:10:31;;;;;;;1.27;0.97;;;;;;;;;;5067301;28;20024;-65
2023/05/28 12:12:59;;;;;;;2.80;1.10;;;;;;;;;;5071912;28;20266;-65
2023/05/28 12:15:28;;;;;;;1.63;1.10;;;;;;;;;;5072089;28;20650;-65
2023/05/28 12:17:57;;;;;;;1.37;1.10;;;;;;;;;;5071773;28;20250;-65
2023/05/28 12:20:24;;;;;;;1.17;1.00;;;;;;;;;;5071828;28;20253;-64
2023/05/28 12:23:07;;;;;;;2.97;1.57;;;;;;;;;;5071448;28;20253;-64
2023/05/28 12:25:43;;;;;;;1.43;1.17;;;;;;;;;;5066893;28;20285;-62
2023/05/28 12:28:11;;;;;;;4.33;1.50;;;;;;;;;;5066880;28;20253;-65
2023/05/28 12:30:39;;;;;;;2.77;1.60;;;;;;;;;;5066567;28;20250;-66
2023/05/28 12:33:06;;;;;;;4.83;1.43;;;;;;;;;;5049586;28;20743;-63
2023/05/28 12:35:33;;;;;;;2.40;1.40;;;;;;;;;;5072122;28;20300;-64
2023/05/28 12:37:59;;;;;;;1.33;1.00;;;;;;;;;;5072208;28;20802;-64
2023/05/28 12:40:26;;;;;;;1.73;1.17;;;;;;;;;;5071777;28;20677;-63
2023/05/28 12:42:53;;;;;;;2.23;1.43;;;;;;;;;;5071995;28;20352;-64
2023/05/28 12:45:20;;;;;;;4.80;2.70;;;;;;;;;;5070862;28;20635;-62
2023/05/28 12:47:47;;;;;;;6.97;1.53;;;;;;;;;;5066278;28;20261;-63
2023/05/28 12:50:14;;;;;;;3.27;1.77;;;;;;;;;;5066978;28;20324;-62
2023/05/28 12:52:41;;;;;;;2.23;1.43;;;;;;;;;;5066745;28;20273;-60
2023/05/28 12:55:08;;;;;;;4.03;2.07;;;;;;;;;;5066885;28;20253;-61
2023/05/28 12:57:35;;;;;;;4.80;2.10;;;;;;;;;;5071545;28;20253;-61
2023/05/28 13:00:05;;;;;;;2.07;1.63;;;;;;;;;;5071828;28;20250;-62
2023/05/28 13:02:32;;;;;;;2.00;1.47;;;;;;;;;;5071331;28;20281;-61
2023/05/28 13:04:58;;;;;;;3.63;1.97;;;;;;;;;;5071817;28;20331;-62
2023/05/28 13:07:25;;;;;;;3.03;1.70;;;;;;;;;;5071383;28;20332;-62
2023/05/28 13:09:52;;;;;;;2.33;1.53;;;;;;;;;;5066529;28;20257;-61
2023/05/28 13:12:19;;;;;;;1.47;1.03;;;;;;;;;;5066490;28;20253;-61
2023/05/28 13:14:45;;;;;;;3.80;1.77;;;;;;;;;;5066435;28;20250;-61
2023/05/28 13:17:12;;;;;;;1.40;1.27;;;;;;;;;;5066454;28;20245;-60
2023/05/28 13:19:39;;;;;;;1.43;1.10;;;;;;;;;;5071289;28;20572;-60
2023/05/28 13:22:10;;;;;;;6.87;1.60;;;;;;;;;;5071578;28;20066;-60
2023/05/28 13:24:37;;;;;;;2.33;1.20;;;;;;;;;;5071632;28;20548;-61
2023/05/28 13:27:04;;;;;;;1.33;1.03;;;;;;;;;;5071550;28;20066;-60
2023/05/28 13:29:31;;;;;;;1.93;1.30;;;;;;;;;;5071679;28;20017;-61
2023/05/28 13:31:58;;;;;;;1.50;1.27;;;;;;;;;;5069880;28;20089;-61
2023/05/28 13:34:24;;;;;;;1.90;1.30;;;;;;;;;;5069593;28;20047;-62
2023/05/28 13:36:51;;;;;;;1.60;1.00;;;;;;;;;;5069945;28;20051;-61
2023/05/28 13:39:21;;;;;;;3.13;1.90;;;;;;;;;;5069789;28;20032;-62
2023/05/28 13:41:49;;;;;;;1.93;1.40;;;;;;;;;;5074398;28;20031;-62
2023/05/28 13:44:16;;;;;;;1.63;1.23;;;;;;;;;;5074814;28;20502;-61
2023/05/28 13:46:42;;;;;;;1.53;1.13;;;;;;;;;;5074774;28;20024;-61
2023/05/28 13:49:09;;;;;;;1.60;1.20;;;;;;;;;;5074678;28;20486;-62
2023/05/28 13:51:39;;;;;;;2.03;1.43;;;;;;;;;;5074551;28;20028;-62
2023/05/28 13:54:07;;;;;;;2.47;1.50;;;;;;;;;;5069830;28;20036;-61
2023/05/28 13:56:34;;;;;;;2.50;1.60;;;;;;;;;;5069438;28;20024;-61
2023/05/28 13:59:01;;;;;;;2.20;1.73;;;;;;;;;;5069768;28;20379;-61
2023/05/28 14:01:27;;;;;;;3.83;1.53;;;;;;;;;;5069396;28;20462;-62
2023/05/28 14:03:54;;;;;;;2.67;1.30;;;;;;;;;;5073514;28;20028;-62
2023/05/28 14:06:21;;;;;;;2.10;1.47;;;;;;;;;;5073934;28;20033;-62
2023/05/28 14:08:48;;;;;;;2.37;1.73;;;;;;;;;;5074576;28;20108;-61
2023/05/28 14:11:15;;;;;;;1.40;0.97;;;;;;;;;;5074432;28;20430;-61
2023/05/28 14:13:42;;;;;;;2.13;1.57;;;;;;;;;;5074453;28;20059;-62
2023/05/28 14:16:08;;;;;;;2.47;1.47;;;;;;;;;;5069803;28;20051;-62
2023/05/28 14:18:35;;;;;;;3.17;1.90;;;;;;;;;;5069088;28;20493;-62
2023/05/28 14:21:02;;;;;;;1.60;1.40;;;;;;;;;;5069284;28;20032;-62
2023/05/28 14:23:29;;;;;;;2.03;1.47;;;;;;;;;;5068308;28;20028;-61
2023/05/28 14:25:56;;;;;;;1.83;1.27;;;;;;;;;;5072455;28;20048;-61
2023/05/28 14:28:22;;;;;;;2.03;1.27;;;;;;;;;;5074084;28;20494;-61
2023/05/28 14:30:49;;;;;;;2.00;1.17;;;;;;;;;;5073983;28;20055;-61
2023/05/28 14:33:16;;;;;;;4.83;1.73;;;;;;;;;;5073802;28;20027;-61
2023/05/28 14:35:43;;;;;;;2.53;1.57;;;;;;;;;;5073757;28;20044;-62
2023/05/28 14:38:10;;;;;;;2.00;1.37;;;;;;;;;;5070030;28;20024;-61
2023/05/28 14:40:37;;;;;;;3.40;1.97;;;;;;;;;;5067742;28;20111;-62
2023/05/28 14:43:03;;;;;;;1.97;1.43;;;;;;;;;;5068497;28;20028;-61
2023/05/28 14:45:30;;;;;;;1.10;0.87;;;;;;;;;;5068471;28;20032;-61
2023/05/28 14:47:57;;;;;;;1.87;1.40;;;;;;;;;;5071358;28;20501;-62